createdAt,value
2022-10-31T00:01:18.114Z,41.50
2022-10-31T00:03:46.036Z,42.88
2022-10-31T00:06:23.521Z,45.03
2022-10-31T00:08:57.430Z,68.38
2022-10-31T00:11:28.719Z,113.00
2022-10-31T00:14:36.105Z,33.72
2022-10-31T00:17:39.283Z,40.75
2022-10-31T00:20:11.708Z,50.70
2022-10-31T00:22:47.761Z,50.30
2022-10-31T00:25:14.783Z,47.38
2022-10-31T00:27:43.978Z,50.17
2022-10-31T00:30:13.500Z,47.33
2022-10-31T00:32:54.697Z,52.83
2022-10-31T00:35:47.358Z,49.83
2022-10-31T00:38:17.713Z,49.75
2022-10-31T00:40:44.808Z,50.67
2022-10-31T00:43:23.294Z,50.22
2022-10-31T00:45:58.510Z,52.45
2022-10-31T00:48:27.641Z,53.92
2022-10-31T00:50:54.803Z,47.72
2022-10-31T00:53:44.645Z,34.45
2022-10-31T00:56:12.585Z,26.88
2022-10-31T00:58:49.686Z,29.17
2022-10-31T01:01:24.669Z,24.88
2022-10-31T01:04:00.877Z,27.75
2022-10-31T01:06:28.988Z,26.58
2022-10-31T01:08:56.158Z,23.52
2022-10-31T01:11:24.659Z,29.27
2022-10-31T01:13:54.078Z,28.98
2022-10-31T01:16:24.035Z,31.73
2022-10-31T01:18:52.413Z,37.80
2022-10-31T01:21:29.385Z,31.80
2022-10-31T01:23:57.928Z,28.92
2022-10-31T01:26:27.649Z,35.45
2022-10-31T01:29:00.399Z,41.95
2022-10-31T01:31:29.928Z,51.93
2022-10-31T01:33:59.524Z,46.38
2022-10-31T01:36:36.418Z,42.63
2022-10-31T01:39:13.561Z,35.47
2022-10-31T01:41:45.238Z,37.78
2022-10-31T01:44:17.170Z,36.78
2022-10-31T01:46:56.518Z,39.05
2022-10-31T01:49:45.015Z,39.42
2022-10-31T01:52:24.377Z,35.15
2022-10-31T01:55:04.329Z,39.90
2022-10-31T01:58:10.131Z,32.25
2022-10-31T02:00:37.739Z,55.97
2022-10-31T02:03:05.829Z,41.67
2022-10-31T02:05:44.344Z,51.28
2022-10-31T02:08:31.541Z,39.05
2022-10-31T02:11:01.295Z,44.75
2022-10-31T02:13:42.993Z,39.75
2022-10-31T02:16:10.971Z,41.35
2022-10-31T02:18:39.182Z,39.35
2022-10-31T02:21:32.688Z,38.58
2022-10-31T02:24:40.029Z,39.13
2022-10-31T02:27:31.470Z,32.47
2022-10-31T02:30:08.610Z,35.05
2022-10-31T02:32:44.706Z,34.05
2022-10-31T02:35:36.465Z,39.22
2022-10-31T02:38:27.179Z,41.08
2022-10-31T02:41:25.519Z,41.17
2022-10-31T02:44:05.558Z,47.08
2022-10-31T02:46:35.659Z,42.55
2022-10-31T02:49:28.227Z,39.85
2022-10-31T02:51:55.383Z,41.75
2022-10-31T02:54:32.353Z,34.97
2022-10-31T02:57:05.537Z,39.03
2022-10-31T02:59:37.446Z,41.10
2022-10-31T03:03:00.825Z,48.30
2022-10-31T03:05:36.054Z,37.03
2022-10-31T03:08:30.698Z,42.72
2022-10-31T03:11:19.439Z,42.78
2022-10-31T03:14:37.065Z,46.00
2022-10-31T03:17:17.714Z,48.08
2022-10-31T03:19:55.354Z,44.03
2022-10-31T03:22:30.833Z,43.92
2022-10-31T03:25:03.966Z,42.97
2022-10-31T03:27:36.214Z,43.53
2022-10-31T03:30:11.206Z,42.05
2022-10-31T03:33:03.038Z,36.03
2022-10-31T03:35:37.819Z,38.83
2022-10-31T03:38:34.785Z,41.65
2022-10-31T03:41:07.150Z,43.17
2022-10-31T03:43:41.891Z,34.42
2022-10-31T03:46:10.368Z,35.97
2022-10-31T03:48:37.387Z,39.47
2022-10-31T03:51:37.128Z,37.60
2022-10-31T03:54:10.420Z,40.95
2022-10-31T03:56:51.945Z,45.58
2022-10-31T03:59:26.383Z,45.97
2022-10-31T04:02:03.655Z,47.47
2022-10-31T04:04:34.598Z,44.20
2022-10-31T04:07:03.014Z,43.95
2022-10-31T04:09:36.598Z,45.40
2022-10-31T04:14:54.940Z,47.22
2022-10-31T04:17:25.257Z,45.40
2022-10-31T04:19:52.504Z,36.60
2022-10-31T04:22:21.645Z,37.35
2022-10-31T04:24:48.621Z,46.78
2022-10-31T04:27:16.638Z,35.95
2022-10-31T04:29:46.946Z,41.50
2022-10-31T04:32:20.137Z,40.22
2022-10-31T04:34:47.275Z,41.30
2022-10-31T04:37:16.141Z,41.60
2022-10-31T04:40:02.785Z,33.97
2022-10-31T04:42:33.363Z,38.90
2022-10-31T04:45:02.416Z,43.42
2022-10-31T04:47:33.578Z,42.45
2022-10-31T04:50:01.099Z,43.67
2022-10-31T04:52:29.695Z,43.75
2022-10-31T04:54:56.645Z,41.95
2022-10-31T04:57:23.790Z,35.17
2022-10-31T04:59:51.727Z,37.38
2022-10-31T05:02:18.761Z,41.67
2022-10-31T05:04:45.816Z,39.88
2022-10-31T05:07:12.752Z,48.90
2022-10-31T05:09:42.667Z,44.10
2022-10-31T05:12:09.664Z,43.72
2022-10-31T05:14:37.798Z,46.40
2022-10-31T05:17:05.888Z,47.92
2022-10-31T05:19:33.020Z,46.33
2022-10-31T05:22:03.950Z,41.03
2022-10-31T05:24:30.963Z,42.75
2022-10-31T05:27:05.879Z,39.85
2022-10-31T05:29:40.011Z,38.15
2022-10-31T05:32:08.177Z,41.37
2022-10-31T05:34:38.296Z,41.50
2022-10-31T05:37:05.225Z,40.45
2022-10-31T05:39:34.318Z,37.97
2022-10-31T05:42:03.768Z,39.60
2022-10-31T05:44:40.114Z,40.55
2022-10-31T05:47:14.651Z,34.15
2022-10-31T05:49:41.626Z,39.70
2022-10-31T05:52:08.620Z,36.95
2022-10-31T05:54:45.387Z,39.95
2022-10-31T05:57:27.094Z,38.90
2022-10-31T06:00:01.618Z,36.63
2022-10-31T06:02:35.718Z,36.72
2022-10-31T06:05:04.263Z,34.40
2022-10-31T06:07:35.618Z,38.65
2022-10-31T06:10:06.507Z,36.33
2022-10-31T06:12:46.414Z,36.38
2022-10-31T06:15:17.704Z,39.97
2022-10-31T06:17:47.944Z,39.33
2022-10-31T06:20:15.879Z,40.45
2022-10-31T06:22:50.077Z,43.28
2022-10-31T06:25:29.717Z,42.03
2022-10-31T06:27:58.786Z,44.95
2022-10-31T06:30:26.112Z,41.72
2022-10-31T06:32:54.283Z,40.60
2022-10-31T06:35:23.256Z,39.35
2022-10-31T06:37:55.132Z,37.80
2022-10-31T06:40:22.597Z,41.72
2022-10-31T06:43:02.867Z,43.20
2022-10-31T06:45:30.298Z,45.00
2022-10-31T06:50:49.800Z,38.60
2022-10-31T06:53:32.843Z,37.22
2022-10-31T06:56:07.446Z,32.37
2022-10-31T06:58:47.918Z,38.33
2022-10-31T07:01:15.188Z,35.15
2022-10-31T07:03:42.234Z,31.85
2022-10-31T07:06:11.208Z,33.28
2022-10-31T07:08:38.238Z,32.25
2022-10-31T07:11:08.337Z,37.47
2022-10-31T07:13:36.318Z,36.22
2022-10-31T07:16:09.102Z,33.40
2022-10-31T07:18:37.397Z,34.07
2022-10-31T07:21:04.868Z,32.22
2022-10-31T07:23:31.905Z,31.55
2022-10-31T07:26:05.969Z,29.95
2022-10-31T07:28:39.058Z,33.85
2022-10-31T07:31:07.003Z,29.45
2022-10-31T07:33:34.996Z,28.80
2022-10-31T07:36:05.360Z,28.52
2022-10-31T07:38:37.371Z,30.67
2022-10-31T07:41:11.499Z,31.52
2022-10-31T07:43:38.702Z,27.20
2022-10-31T07:46:12.704Z,26.58
2022-10-31T07:48:40.687Z,28.00
2022-10-31T07:51:38.313Z,24.17
2022-10-31T07:54:10.779Z,27.05
2022-10-31T07:56:37.717Z,25.83
2022-10-31T07:59:05.782Z,26.60
2022-10-31T08:01:33.830Z,23.75
2022-10-31T08:04:06.970Z,25.02
2022-10-31T08:06:38.139Z,24.27
2022-10-31T08:09:06.310Z,22.67
2022-10-31T08:11:58.454Z,22.80
2022-10-31T08:14:28.966Z,26.20
2022-10-31T08:16:56.220Z,24.92
2022-10-31T08:19:34.973Z,23.52
2022-10-31T08:22:02.161Z,24.58
2022-10-31T08:24:31.351Z,24.30
2022-10-31T08:27:01.699Z,21.40
2022-10-31T08:29:28.643Z,22.30
2022-10-31T08:31:55.637Z,20.85
2022-10-31T08:34:22.599Z,20.75
2022-10-31T08:36:50.648Z,22.73
2022-10-31T08:39:20.619Z,15.38
2022-10-31T08:41:53.598Z,16.35
2022-10-31T08:44:27.600Z,16.88
2022-10-31T08:46:55.638Z,16.10
2022-10-31T08:49:22.649Z,15.60
2022-10-31T08:51:50.783Z,14.35
2022-10-31T08:54:17.830Z,18.27
2022-10-31T08:56:46.997Z,15.60
2022-10-31T08:59:14.044Z,17.35
2022-10-31T09:01:43.186Z,16.40
2022-10-31T09:04:11.422Z,14.82
2022-10-31T09:07:20.172Z,16.08
2022-10-31T09:09:48.033Z,12.90
2022-10-31T09:12:14.995Z,15.30
2022-10-31T09:14:51.078Z,14.23
2022-10-31T09:17:20.148Z,14.88
2022-10-31T09:19:48.157Z,12.07
2022-10-31T09:22:29.304Z,16.90
2022-10-31T09:24:58.384Z,13.10
2022-10-31T09:30:05.614Z,10.40
2022-10-31T09:32:44.773Z,11.32
2022-10-31T09:38:02.373Z,12.60
2022-10-31T09:40:42.000Z,7.38
2022-10-31T09:43:47.444Z,12.50
2022-10-31T09:46:55.519Z,10.20
2022-10-31T09:49:45.312Z,9.65
2022-10-31T09:52:35.519Z,8.20
2022-10-31T09:55:38.515Z,11.52
2022-10-31T09:58:27.177Z,9.88
2022-10-31T10:01:00.636Z,9.70
2022-10-31T10:03:35.908Z,8.07
2022-10-31T10:06:24.751Z,10.70
2022-10-31T10:08:56.562Z,6.65
2022-10-31T10:12:06.052Z,8.25
2022-10-31T10:14:40.877Z,7.40
2022-10-31T10:17:22.941Z,7.68
2022-10-31T10:20:20.814Z,8.10
2022-10-31T10:23:10.297Z,9.68
2022-10-31T10:25:49.498Z,7.72
2022-10-31T10:28:22.505Z,12.50
2022-10-31T10:31:01.238Z,9.65
2022-10-31T10:33:42.305Z,8.45
2022-10-31T10:36:40.129Z,9.05
2022-10-31T10:39:14.282Z,8.80
2022-10-31T10:42:21.289Z,9.65
2022-10-31T10:45:17.573Z,11.65
2022-10-31T10:48:05.317Z,10.55
2022-10-31T10:50:37.416Z,9.95
2022-10-31T10:54:05.217Z,9.20
2022-10-31T10:56:54.301Z,15.02
2022-10-31T10:59:23.668Z,8.82
2022-10-31T11:02:01.726Z,11.13
2022-10-31T11:04:35.536Z,10.98
2022-10-31T11:07:11.387Z,9.05
2022-10-31T11:09:38.879Z,8.27
2022-10-31T11:12:37.688Z,13.05
2022-10-31T11:15:20.828Z,12.10
2022-10-31T11:17:57.476Z,9.48
2022-10-31T11:21:03.933Z,9.73
2022-10-31T11:23:35.125Z,7.07
2022-10-31T11:26:06.316Z,13.48
2022-10-31T11:28:38.401Z,7.30
2022-10-31T11:31:17.207Z,12.70
2022-10-31T11:34:00.390Z,6.07
2022-10-31T11:36:33.663Z,6.85
2022-10-31T11:39:02.825Z,8.45
2022-10-31T11:41:39.827Z,13.32
2022-10-31T11:44:27.889Z,9.15
2022-10-31T11:47:00.121Z,8.73
2022-10-31T11:49:50.915Z,7.35
2022-10-31T11:52:33.373Z,9.32
2022-10-31T11:55:22.316Z,8.40
2022-10-31T11:57:55.531Z,7.80
2022-10-31T12:00:39.606Z,7.63
2022-10-31T12:03:21.849Z,12.05
2022-10-31T12:05:58.383Z,11.50
2022-10-31T12:08:32.574Z,12.43
2022-10-31T12:11:33.222Z,11.75
2022-10-31T12:14:15.444Z,11.35
2022-10-31T12:17:10.638Z,9.30
2022-10-31T12:20:17.609Z,8.90
2022-10-31T12:23:04.352Z,17.50
2022-10-31T12:25:55.246Z,8.77
2022-10-31T12:29:04.040Z,10.40
2022-10-31T12:31:51.860Z,11.70
2022-10-31T12:34:44.799Z,31.50
2022-10-31T12:37:27.107Z,12.55
2022-10-31T12:40:34.741Z,33.83
2022-10-31T12:43:37.685Z,9.02
2022-10-31T12:46:15.389Z,10.02
2022-10-31T12:49:16.846Z,8.00
2022-10-31T12:52:24.054Z,10.68
2022-10-31T12:55:04.645Z,14.15
2022-10-31T12:57:43.934Z,13.50
2022-10-31T13:00:18.018Z,8.85
2022-10-31T13:03:15.897Z,10.82
2022-10-31T13:05:55.825Z,12.63
2022-10-31T13:08:41.892Z,31.63
2022-10-31T13:11:17.023Z,10.88
2022-10-31T13:14:26.935Z,11.98
2022-10-31T13:16:56.538Z,14.27
2022-10-31T13:19:29.071Z,13.60
2022-10-31T13:22:20.128Z,11.07
2022-10-31T13:25:09.514Z,11.65
2022-10-31T13:27:52.267Z,11.85
2022-10-31T13:30:23.735Z,12.30
2022-10-31T13:33:15.019Z,11.15
2022-10-31T13:36:16.270Z,10.07
2022-10-31T13:39:50.954Z,9.63
2022-10-31T13:42:38.979Z,13.60
2022-10-31T13:45:15.526Z,8.88
2022-10-31T13:47:44.231Z,9.98
2022-10-31T13:50:34.403Z,9.38
2022-10-31T13:53:19.379Z,11.20
2022-10-31T13:56:04.349Z,11.68
2022-10-31T13:58:33.309Z,13.25
2022-10-31T14:01:21.557Z,7.45
2022-10-31T14:04:10.964Z,11.80
2022-10-31T14:06:59.564Z,9.13
2022-10-31T14:09:33.456Z,8.90
2022-10-31T14:12:14.125Z,8.02
2022-10-31T14:14:51.435Z,13.57
2022-10-31T14:17:28.149Z,7.07
2022-10-31T14:20:02.171Z,6.57
2022-10-31T14:22:37.313Z,8.90
2022-10-31T14:25:26.791Z,11.38
2022-10-31T14:27:54.021Z,10.65
2022-10-31T14:30:25.598Z,11.27
2022-10-31T14:33:00.143Z,15.98
2022-10-31T14:35:52.774Z,9.35
2022-10-31T14:38:57.154Z,11.45
2022-10-31T14:41:51.335Z,12.65
2022-10-31T14:44:57.587Z,14.32
2022-10-31T14:48:05.291Z,17.70
2022-10-31T14:50:49.814Z,15.88
2022-10-31T14:53:36.098Z,19.05
2022-10-31T14:56:11.492Z,18.40
2022-10-31T14:58:47.290Z,23.95
2022-10-31T15:01:38.325Z,24.63
2022-10-31T15:04:33.715Z,18.55
2022-10-31T15:07:25.117Z,18.92
2022-10-31T15:10:00.854Z,16.33
2022-10-31T15:12:39.990Z,19.63
2022-10-31T15:15:35.384Z,18.85
2022-10-31T15:18:18.560Z,20.88
2022-10-31T15:20:54.901Z,15.67
2022-10-31T15:23:30.188Z,17.48
2022-10-31T15:26:02.720Z,15.38
2022-10-31T15:28:34.999Z,10.57
2022-10-31T15:31:04.348Z,12.88
2022-10-31T15:33:52.548Z,10.65
2022-10-31T15:36:27.752Z,15.75
2022-10-31T15:39:03.934Z,9.68
2022-10-31T15:41:40.161Z,13.77
2022-10-31T15:44:37.468Z,15.35
2022-10-31T15:47:18.540Z,10.60
2022-10-31T15:49:57.118Z,10.75
2022-10-31T15:52:55.260Z,11.95
2022-10-31T15:55:37.216Z,8.70
2022-10-31T15:58:16.122Z,14.63
2022-10-31T16:00:57.861Z,15.93
2022-10-31T16:03:42.229Z,15.10
2022-10-31T16:06:22.532Z,20.40
2022-10-31T16:08:53.497Z,18.77
2022-10-31T16:11:54.346Z,16.88
2022-10-31T16:14:45.594Z,12.50
2022-10-31T16:17:45.417Z,13.23
2022-10-31T16:20:26.566Z,14.65
2022-10-31T16:22:56.872Z,11.05
2022-10-31T16:25:41.148Z,11.77
2022-10-31T16:29:05.587Z,13.35
2022-10-31T16:31:42.149Z,19.98
2022-10-31T16:34:26.557Z,12.35
2022-10-31T16:36:58.056Z,14.63
2022-10-31T16:39:26.015Z,14.02
2022-10-31T16:41:58.247Z,14.90
2022-10-31T16:44:34.768Z,15.98
2022-10-31T16:47:16.162Z,17.02
2022-10-31T16:53:33.890Z,11.95
2022-10-31T16:56:17.758Z,11.80
2022-10-31T16:58:46.457Z,12.75
2022-10-31T17:01:23.361Z,11.43
2022-10-31T17:03:57.554Z,13.43
2022-10-31T17:06:48.544Z,10.18
2022-10-31T17:10:32.626Z,12.65
2022-10-31T17:13:04.297Z,14.90
2022-10-31T17:15:55.962Z,11.70
2022-10-31T17:18:39.456Z,10.13
2022-10-31T17:21:42.759Z,14.10
2022-10-31T17:24:27.163Z,13.13
2022-10-31T17:26:56.852Z,18.80
2022-10-31T17:29:26.920Z,13.57
2022-10-31T17:31:54.240Z,11.05
2022-10-31T17:34:21.299Z,19.58
2022-10-31T17:36:53.622Z,14.50
2022-10-31T17:39:24.935Z,12.63
2022-10-31T17:41:57.487Z,9.75
2022-10-31T17:45:25.437Z,11.07
2022-10-31T17:48:56.608Z,17.73
2022-10-31T17:51:57.080Z,13.00
2022-10-31T17:54:52.259Z,11.98
2022-10-31T17:57:57.948Z,14.38
2022-10-31T18:00:36.057Z,14.13
2022-10-31T18:03:49.238Z,18.83
2022-10-31T18:06:17.575Z,14.95
2022-10-31T18:09:05.877Z,12.30
2022-10-31T18:11:33.598Z,11.15
2022-10-31T18:14:22.624Z,12.15
2022-10-31T18:17:09.603Z,14.73
2022-10-31T18:19:43.761Z,12.45
2022-10-31T18:22:15.526Z,10.77
2022-10-31T18:24:42.715Z,11.90
2022-10-31T18:27:13.977Z,12.80
2022-10-31T18:29:48.833Z,11.45
2022-10-31T18:32:51.697Z,11.77
2022-10-31T18:35:26.860Z,10.95
2022-10-31T18:38:14.534Z,11.50
2022-10-31T18:40:41.827Z,8.40
2022-10-31T18:43:21.827Z,9.18
2022-10-31T18:45:53.707Z,6.95
2022-10-31T18:48:36.835Z,7.97
2022-10-31T18:51:06.512Z,9.85
2022-10-31T18:53:36.343Z,8.32
2022-10-31T18:56:11.200Z,6.65
2022-10-31T18:58:43.303Z,10.13
2022-10-31T19:01:19.628Z,15.38
2022-10-31T19:03:54.400Z,10.32
2022-10-31T19:06:58.408Z,6.78
2022-10-31T19:09:31.142Z,5.65
2022-10-31T19:12:18.751Z,11.27
2022-10-31T19:14:46.967Z,11.95
2022-10-31T19:17:17.158Z,10.50
2022-10-31T19:19:54.608Z,7.45
2022-10-31T19:22:32.024Z,8.05
2022-10-31T19:25:39.143Z,10.50
2022-10-31T19:28:37.317Z,8.20
2022-10-31T19:31:05.463Z,10.27
2022-10-31T19:34:03.141Z,9.52
2022-10-31T19:36:36.980Z,11.45
2022-10-31T19:39:04.421Z,13.85
2022-10-31T19:41:40.437Z,19.65
2022-10-31T19:44:21.720Z,9.23
2022-10-31T19:46:58.427Z,9.20
2022-10-31T19:49:27.292Z,12.05
2022-10-31T19:52:37.654Z,12.60
2022-10-31T19:55:05.526Z,9.00
2022-10-31T19:58:01.463Z,10.55
2022-10-31T20:01:04.152Z,7.60
2022-10-31T20:03:34.058Z,16.00
2022-10-31T20:06:22.039Z,9.00
2022-10-31T20:09:03.937Z,9.18
2022-10-31T20:11:44.373Z,16.85
2022-10-31T20:14:18.428Z,5.90
2022-10-31T20:17:10.616Z,11.68
2022-10-31T20:19:37.863Z,6.35
2022-10-31T20:22:05.183Z,7.28
2022-10-31T20:24:33.606Z,7.97
2022-10-31T20:27:02.613Z,6.32
2022-10-31T20:29:29.685Z,6.93
2022-10-31T20:32:02.813Z,5.78
2022-10-31T20:34:50.699Z,8.15
2022-10-31T20:37:37.775Z,9.88
2022-10-31T20:40:11.559Z,8.45
2022-10-31T20:45:26.598Z,12.88
2022-10-31T20:48:03.647Z,18.25
2022-10-31T20:50:56.302Z,13.05
2022-10-31T20:53:38.079Z,10.13
2022-10-31T20:56:16.859Z,12.73
2022-10-31T20:58:47.452Z,33.28
2022-10-31T21:01:23.569Z,11.23
2022-10-31T21:04:10.778Z,11.35
2022-10-31T21:06:39.525Z,14.38
2022-10-31T21:09:23.926Z,15.00
2022-10-31T21:11:52.910Z,12.02
2022-10-31T21:14:22.307Z,15.07
2022-10-31T21:16:49.440Z,13.40
2022-10-31T21:19:16.964Z,16.10
2022-10-31T21:21:47.582Z,15.50
2022-10-31T21:24:29.094Z,15.88
2022-10-31T21:27:20.658Z,17.30
2022-10-31T21:29:49.649Z,26.13
2022-10-31T21:32:31.899Z,28.50
2022-10-31T21:35:07.309Z,25.95
2022-10-31T21:37:43.376Z,33.05
2022-10-31T21:40:20.441Z,19.00
2022-10-31T21:42:57.653Z,15.32
2022-10-31T21:45:26.758Z,17.02
2022-10-31T21:48:31.859Z,18.17
2022-10-31T21:54:39.355Z,16.20
2022-10-31T22:00:46.892Z,20.95
2022-10-31T22:03:13.966Z,26.83
2022-10-31T22:05:44.140Z,23.38
2022-10-31T22:08:11.285Z,16.67
2022-10-31T22:11:06.493Z,13.02
2022-10-31T22:13:52.158Z,17.85
2022-10-31T22:16:30.231Z,11.60
2022-10-31T22:19:39.698Z,15.02
2022-10-31T22:22:13.310Z,20.77
2022-10-31T22:24:46.340Z,14.95
2022-10-31T22:27:29.917Z,13.82
2022-10-31T22:30:08.889Z,12.25
2022-10-31T22:33:01.052Z,18.90
2022-10-31T22:36:07.387Z,21.38
2022-10-31T22:38:44.782Z,16.65
2022-10-31T22:41:26.213Z,15.50
2022-10-31T22:44:22.743Z,12.30
2022-10-31T22:47:01.919Z,23.30
2022-10-31T22:49:49.255Z,15.55
2022-10-31T22:52:48.519Z,25.50
2022-10-31T22:55:17.602Z,64.70
2022-10-31T22:57:56.404Z,62.28
2022-10-31T23:00:29.397Z,37.70
2022-10-31T23:03:29.124Z,38.20
2022-10-31T23:06:09.873Z,59.17
2022-10-31T23:08:38.286Z,52.38
2022-10-31T23:11:34.938Z,44.03
2022-10-31T23:14:38.029Z,53.22
2022-10-31T23:17:18.117Z,53.13
2022-10-31T23:19:52.983Z,44.28
2022-10-31T23:22:19.973Z,40.20
2022-10-31T23:25:06.977Z,50.08
2022-10-31T23:27:43.017Z,38.75
2022-10-31T23:30:15.946Z,53.83
2022-10-31T23:32:44.887Z,53.50
2022-10-31T23:35:38.489Z,64.35
2022-10-31T23:38:05.539Z,66.25
2022-10-31T23:40:40.902Z,62.85
2022-10-31T23:43:14.014Z,66.97
2022-10-31T23:46:13.187Z,65.95
2022-10-31T23:48:43.585Z,83.03
2022-10-31T23:51:56.711Z,86.40
2022-10-31T23:54:28.200Z,88.28
2022-10-31T23:57:43.113Z,102.85
